sensor_id;sensor_type;location;lat;lon;timestamp;pressure;altitude;pressure_sealevel;temperature;humidity
38812;BME280;24553;51.640;-0.752;2023-03-19T00:02:00;100236.38;;;11.00;100.00
38812;BME280;24553;51.640;-0.752;2023-03-19T00:04:26;100247.91;;;10.73;100.00
38812;BME280;24553;51.640;-0.752;2023-03-19T00:06:52;100249.97;;;10.36;100.00
38812;BME280;24553;51.640;-0.752;2023-03-19T00:09:18;100254.28;;;10.15;100.00
38812;BME280;24553;51.640;-0.752;2023-03-19T00:11:44;100258.56;;;9.88;100.00
38812;BME280;24553;51.640;-0.752;2023-03-19T00:14:10;100270.34;;;9.86;100.00
38812;BME280;24553;51.640;-0.752;2023-03-19T00:16:35;100262.16;;;9.80;100.00
38812;BME280;24553;51.640;-0.752;2023-03-19T00:19:01;100266.50;;;9.88;100.00
38812;BME280;24553;51.640;-0.752;2023-03-19T00:21:28;100285.53;;;9.98;100.00
38812;BME280;24553;51.640;-0.752;2023-03-19T00:23:53;100285.91;;;9.95;100.00
38812;BME280;24553;51.640;-0.752;2023-03-19T00:26:21;100283.16;;;9.82;100.00
38812;BME280;24553;51.640;-0.752;2023-03-19T00:28:46;100279.75;;;9.88;100.00
38812;BME280;24553;51.640;-0.752;2023-03-19T00:31:14;100280.19;;;9.92;100.00
38812;BME280;24553;51.640;-0.752;2023-03-19T00:33:40;100283.34;;;9.80;100.00
38812;BME280;24553;51.640;-0.752;2023-03-19T00:36:07;100289.13;;;9.91;100.00
38812;BME280;24553;51.640;-0.752;2023-03-19T00:38:33;100296.22;;;9.83;100.00
38812;BME280;24553;51.640;-0.752;2023-03-19T00:41:00;100302.00;;;9.72;100.00
38812;BME280;24553;51.640;-0.752;2023-03-19T00:43:25;100305.47;;;9.51;100.00
38812;BME280;24553;51.640;-0.752;2023-03-19T00:45:51;100309.75;;;9.31;100.00
38812;BME280;24553;51.640;-0.752;2023-03-19T00:48:17;100300.06;;;9.38;100.00
38812;BME280;24553;51.640;-0.752;2023-03-19T00:50:42;100307.31;;;9.51;100.00
38812;BME280;24553;51.640;-0.752;2023-03-19T00:53:08;100322.34;;;9.29;100.00
38812;BME280;24553;51.640;-0.752;2023-03-19T00:55:33;100308.28;;;9.28;100.00
38812;BME280;24553;51.640;-0.752;2023-03-19T00:57:59;100310.44;;;9.03;100.00
38812;BME280;24553;51.640;-0.752;2023-03-19T01:00:24;100302.34;;;8.90;100.00
38812;BME280;24553;51.640;-0.752;2023-03-19T01:02:50;100299.81;;;8.82;100.00
38812;BME280;24553;51.640;-0.752;2023-03-19T01:05:15;100316.50;;;8.67;100.00
38812;BME280;24553;51.640;-0.752;2023-03-19T01:07:41;100341.19;;;8.60;100.00
38812;BME280;24553;51.640;-0.752;2023-03-19T01:10:07;100336.09;;;8.73;100.00
38812;BME280;24553;51.640;-0.752;2023-03-19T01:12:32;100336.72;;;8.75;100.00
38812;BME280;24553;51.640;-0.752;2023-03-19T01:14:58;100341.66;;;8.63;100.00
38812;BME280;24553;51.640;-0.752;2023-03-19T01:17:23;100337.38;;;8.62;100.00
38812;BME280;24553;51.640;-0.752;2023-03-19T01:19:49;100345.09;;;8.64;100.00
38812;BME280;24553;51.640;-0.752;2023-03-19T01:22:15;100359.97;;;8.80;100.00
38812;BME280;24553;51.640;-0.752;2023-03-19T01:24:41;100354.50;;;8.81;100.00
38812;BME280;24553;51.640;-0.752;2023-03-19T01:27:07;100355.22;;;8.90;100.00
38812;BME280;24553;51.640;-0.752;2023-03-19T01:29:32;100348.09;;;8.90;100.00
38812;BME280;24553;51.640;-0.752;2023-03-19T01:31:58;100352.19;;;9.08;100.00
38812;BME280;24553;51.640;-0.752;2023-03-19T01:34:23;100361.41;;;9.12;100.00
38812;BME280;24553;51.640;-0.752;2023-03-19T01:36:49;100361.88;;;9.15;100.00
38812;BME280;24553;51.640;-0.752;2023-03-19T01:39:14;100358.84;;;9.18;100.00
38812;BME280;24553;51.640;-0.752;2023-03-19T01:41:40;100352.84;;;9.10;100.00
38812;BME280;24553;51.640;-0.752;2023-03-19T01:44:25;100357.50;;;9.08;100.00
38812;BME280;24553;51.640;-0.752;2023-03-19T01:46:51;100368.53;;;9.11;100.00
38812;BME280;24553;51.640;-0.752;2023-03-19T01:49:17;100356.03;;;9.05;100.00
38812;BME280;24553;51.640;-0.752;2023-03-19T01:51:44;100364.97;;;9.04;100.00
38812;BME280;24553;51.640;-0.752;2023-03-19T01:54:14;100354.13;;;8.84;100.00
38812;BME280;24553;51.640;-0.752;2023-03-19T01:56:42;100352.31;;;8.85;100.00
38812;BME280;24553;51.640;-0.752;2023-03-19T01:59:13;100364.88;;;8.83;100.00
38812;BME280;24553;51.640;-0.752;2023-03-19T02:01:47;100358.59;;;8.84;100.00
38812;BME280;24553;51.640;-0.752;2023-03-19T02:04:15;100357.97;;;8.82;100.00
38812;BME280;24553;51.640;-0.752;2023-03-19T02:06:41;100362.44;;;8.81;100.00
38812;BME280;24553;51.640;-0.752;2023-03-19T02:09:08;100353.75;;;8.87;100.00
38812;BME280;24553;51.640;-0.752;2023-03-19T02:11:36;100350.03;;;8.82;100.00
38812;BME280;24553;51.640;-0.752;2023-03-19T02:14:02;100361.97;;;8.78;100.00
38812;BME280;24553;51.640;-0.752;2023-03-19T02:16:27;100355.50;;;8.80;100.00
38812;BME280;24553;51.640;-0.752;2023-03-19T02:18:53;100367.81;;;8.73;100.00
38812;BME280;24553;51.640;-0.752;2023-03-19T02:21:19;100375.44;;;8.83;100.00
38812;BME280;24553;51.640;-0.752;2023-03-19T02:24:07;100378.38;;;8.88;100.00
38812;BME280;24553;51.640;-0.752;2023-03-19T02:26:35;100374.00;;;9.10;100.00
38812;BME280;24553;51.640;-0.752;2023-03-19T02:29:01;100371.19;;;9.11;100.00
38812;BME280;24553;51.640;-0.752;2023-03-19T02:31:28;100367.16;;;9.01;100.00
38812;BME280;24553;51.640;-0.752;2023-03-19T02:34:04;100372.66;;;8.99;100.00
38812;BME280;24553;51.640;-0.752;2023-03-19T02:36:52;100364.50;;;9.01;100.00
38812;BME280;24553;51.640;-0.752;2023-03-19T02:42:01;100384.94;;;8.92;100.00
38812;BME280;24553;51.640;-0.752;2023-03-19T02:44:26;100390.16;;;8.70;100.00
38812;BME280;24553;51.640;-0.752;2023-03-19T02:46:52;100390.44;;;8.76;100.00
38812;BME280;24553;51.640;-0.752;2023-03-19T02:49:17;100392.03;;;8.62;100.00
38812;BME280;24553;51.640;-0.752;2023-03-19T02:51:43;100382.09;;;8.64;100.00
38812;BME280;24553;51.640;-0.752;2023-03-19T02:54:08;100380.09;;;8.66;100.00
38812;BME280;24553;51.640;-0.752;2023-03-19T02:56:33;100369.91;;;8.63;100.00
38812;BME280;24553;51.640;-0.752;2023-03-19T02:58:59;100383.66;;;8.58;100.00
38812;BME280;24553;51.640;-0.752;2023-03-19T03:01:24;100383.22;;;8.55;100.00
38812;BME280;24553;51.640;-0.752;2023-03-19T03:03:50;100398.13;;;8.47;100.00
38812;BME280;24553;51.640;-0.752;2023-03-19T03:06:15;100396.94;;;8.50;100.00
38812;BME280;24553;51.640;-0.752;2023-03-19T03:08:42;100403.69;;;8.52;100.00
38812;BME280;24553;51.640;-0.752;2023-03-19T03:11:07;100401.63;;;8.63;100.00
38812;BME280;24553;51.640;-0.752;2023-03-19T03:13:33;100408.72;;;8.62;100.00
38812;BME280;24553;51.640;-0.752;2023-03-19T03:15:59;100403.63;;;8.61;100.00
38812;BME280;24553;51.640;-0.752;2023-03-19T03:18:24;100413.25;;;8.54;100.00
38812;BME280;24553;51.640;-0.752;2023-03-19T03:20:50;100415.81;;;8.47;100.00
38812;BME280;24553;51.640;-0.752;2023-03-19T03:23:15;100414.69;;;8.41;100.00
38812;BME280;24553;51.640;-0.752;2023-03-19T03:25:41;100424.44;;;8.41;100.00
38812;BME280;24553;51.640;-0.752;2023-03-19T03:28:06;100433.81;;;8.43;100.00
38812;BME280;24553;51.640;-0.752;2023-03-19T03:30:31;100434.50;;;8.37;100.00
38812;BME280;24553;51.640;-0.752;2023-03-19T03:32:57;100426.19;;;8.48;100.00
38812;BME280;24553;51.640;-0.752;2023-03-19T03:35:22;100431.38;;;8.42;100.00
38812;BME280;24553;51.640;-0.752;2023-03-19T03:37:49;100434.03;;;8.34;100.00
38812;BME280;24553;51.640;-0.752;2023-03-19T03:40:15;100434.97;;;8.18;100.00
38812;BME280;24553;51.640;-0.752;2023-03-19T03:42:41;100433.47;;;8.00;100.00
38812;BME280;24553;51.640;-0.752;2023-03-19T03:45:08;100454.47;;;7.94;100.00
38812;BME280;24553;51.640;-0.752;2023-03-19T03:47:35;100446.94;;;7.82;100.00
38812;BME280;24553;51.640;-0.752;2023-03-19T03:50:01;100456.59;;;7.59;100.00
38812;BME280;24553;51.640;-0.752;2023-03-19T03:52:28;100450.03;;;7.55;100.00
38812;BME280;24553;51.640;-0.752;2023-03-19T03:54:58;100470.66;;;7.59;100.00
38812;BME280;24553;51.640;-0.752;2023-03-19T03:57:23;100472.94;;;7.62;100.00
38812;BME280;24553;51.640;-0.752;2023-03-19T03:59:49;100474.78;;;7.54;100.00
38812;BME280;24553;51.640;-0.752;2023-03-19T04:02:14;100473.94;;;7.53;100.00
38812;BME280;24553;51.640;-0.752;2023-03-19T04:04:40;100472.31;;;7.52;100.00
38812;BME280;24553;51.640;-0.752;2023-03-19T04:07:05;100479.56;;;7.50;100.00
38812;BME280;24553;51.640;-0.752;2023-03-19T04:09:31;100479.75;;;7.49;100.00
38812;BME280;24553;51.640;-0.752;2023-03-19T04:11:57;100484.03;;;7.50;100.00
38812;BME280;24553;51.640;-0.752;2023-03-19T04:14:22;100488.34;;;7.42;100.00
38812;BME280;24553;51.640;-0.752;2023-03-19T04:16:47;100492.31;;;7.38;100.00
38812;BME280;24553;51.640;-0.752;2023-03-19T04:19:13;100497.44;;;7.32;100.00
38812;BME280;24553;51.640;-0.752;2023-03-19T04:21:38;100498.28;;;7.24;100.00
38812;BME280;24553;51.640;-0.752;2023-03-19T04:24:04;100510.69;;;7.15;100.00
38812;BME280;24553;51.640;-0.752;2023-03-19T04:26:29;100507.06;;;7.08;100.00
38812;BME280;24553;51.640;-0.752;2023-03-19T04:28:56;100507.22;;;6.98;100.00
38812;BME280;24553;51.640;-0.752;2023-03-19T04:31:22;100513.34;;;6.83;100.00
38812;BME280;24553;51.640;-0.752;2023-03-19T04:33:48;100509.72;;;6.92;100.00
38812;BME280;24553;51.640;-0.752;2023-03-19T04:36:13;100519.75;;;6.88;100.00
38812;BME280;24553;51.640;-0.752;2023-03-19T04:38:39;100514.16;;;6.83;100.00
38812;BME280;24553;51.640;-0.752;2023-03-19T04:41:04;100526.53;;;6.74;100.00
38812;BME280;24553;51.640;-0.752;2023-03-19T04:43:29;100525.06;;;6.64;100.00
38812;BME280;24553;51.640;-0.752;2023-03-19T04:45:55;100529.16;;;6.66;100.00
38812;BME280;24553;51.640;-0.752;2023-03-19T04:48:20;100535.06;;;6.68;100.00
38812;BME280;24553;51.640;-0.752;2023-03-19T04:50:46;100537.03;;;6.58;100.00
38812;BME280;24553;51.640;-0.752;2023-03-19T04:53:15;100541.34;;;6.59;100.00
38812;BME280;24553;51.640;-0.752;2023-03-19T04:55:41;100545.13;;;6.57;100.00
38812;BME280;24553;51.640;-0.752;2023-03-19T04:58:07;100543.78;;;6.61;100.00
38812;BME280;24553;51.640;-0.752;2023-03-19T05:00:33;100542.00;;;6.61;100.00
38812;BME280;24553;51.640;-0.752;2023-03-19T05:02:58;100553.38;;;6.62;100.00
38812;BME280;24553;51.640;-0.752;2023-03-19T05:05:24;100550.25;;;6.66;100.00
38812;BME280;24553;51.640;-0.752;2023-03-19T05:07:49;100554.84;;;6.64;100.00
38812;BME280;24553;51.640;-0.752;2023-03-19T05:10:15;100548.44;;;6.59;100.00
38812;BME280;24553;51.640;-0.752;2023-03-19T05:12:40;100557.16;;;6.75;100.00
38812;BME280;24553;51.640;-0.752;2023-03-19T05:15:06;100558.44;;;6.63;100.00
38812;BME280;24553;51.640;-0.752;2023-03-19T05:17:31;100559.94;;;6.58;100.00
38812;BME280;24553;51.640;-0.752;2023-03-19T05:19:57;100564.53;;;6.55;100.00
38812;BME280;24553;51.640;-0.752;2023-03-19T05:22:23;100561.06;;;6.47;100.00
38812;BME280;24553;51.640;-0.752;2023-03-19T05:24:48;100572.09;;;6.42;100.00
38812;BME280;24553;51.640;-0.752;2023-03-19T05:27:14;100575.06;;;6.39;100.00
38812;BME280;24553;51.640;-0.752;2023-03-19T05:29:39;100578.03;;;6.44;100.00
38812;BME280;24553;51.640;-0.752;2023-03-19T05:32:05;100582.47;;;6.44;100.00
38812;BME280;24553;51.640;-0.752;2023-03-19T05:34:31;100576.53;;;6.33;100.00
38812;BME280;24553;51.640;-0.752;2023-03-19T05:36:57;100587.72;;;6.27;100.00
38812;BME280;24553;51.640;-0.752;2023-03-19T05:39:22;100591.75;;;6.14;100.00
38812;BME280;24553;51.640;-0.752;2023-03-19T05:41:48;100591.53;;;5.99;100.00
38812;BME280;24553;51.640;-0.752;2023-03-19T05:44:14;100591.41;;;6.08;100.00
38812;BME280;24553;51.640;-0.752;2023-03-19T05:46:39;100602.63;;;6.10;100.00
38812;BME280;24553;51.640;-0.752;2023-03-19T05:49:05;100601.13;;;6.08;100.00
38812;BME280;24553;51.640;-0.752;2023-03-19T05:51:31;100602.91;;;5.99;100.00
38812;BME280;24553;51.640;-0.752;2023-03-19T05:53:56;100603.25;;;6.04;100.00
38812;BME280;24553;51.640;-0.752;2023-03-19T05:56:21;100600.81;;;6.11;100.00
38812;BME280;24553;51.640;-0.752;2023-03-19T05:58:47;100602.94;;;6.07;100.00
38812;BME280;24553;51.640;-0.752;2023-03-19T06:01:12;100614.94;;;6.02;100.00
38812;BME280;24553;51.640;-0.752;2023-03-19T06:03:38;100618.47;;;5.93;100.00
38812;BME280;24553;51.640;-0.752;2023-03-19T06:06:03;100619.94;;;5.87;100.00
38812;BME280;24553;51.640;-0.752;2023-03-19T06:08:29;100618.44;;;5.84;100.00
38812;BME280;24553;51.640;-0.752;2023-03-19T06:10:54;100624.66;;;5.83;100.00
38812;BME280;24553;51.640;-0.752;2023-03-19T06:13:19;100619.09;;;5.86;100.00
38812;BME280;24553;51.640;-0.752;2023-03-19T06:15:47;100625.50;;;5.84;100.00
38812;BME280;24553;51.640;-0.752;2023-03-19T06:18:12;100629.00;;;5.93;100.00
38812;BME280;24553;51.640;-0.752;2023-03-19T06:20:37;100629.91;;;5.83;100.00
38812;BME280;24553;51.640;-0.752;2023-03-19T06:23:03;100633.19;;;5.77;100.00
38812;BME280;24553;51.640;-0.752;2023-03-19T06:25:28;100639.09;;;5.71;100.00
38812;BME280;24553;51.640;-0.752;2023-03-19T06:27:53;100643.16;;;5.65;100.00
38812;BME280;24553;51.640;-0.752;2023-03-19T06:30:19;100644.94;;;5.65;100.00
38812;BME280;24553;51.640;-0.752;2023-03-19T06:32:44;100655.78;;;5.62;100.00
38812;BME280;24553;51.640;-0.752;2023-03-19T06:35:10;100659.78;;;5.66;100.00
38812;BME280;24553;51.640;-0.752;2023-03-19T06:37:36;100667.66;;;5.66;100.00
38812;BME280;24553;51.640;-0.752;2023-03-19T06:40:02;100674.88;;;5.64;100.00
38812;BME280;24553;51.640;-0.752;2023-03-19T06:42:29;100674.38;;;5.60;100.00
38812;BME280;24553;51.640;-0.752;2023-03-19T06:44:54;100683.06;;;5.61;100.00
38812;BME280;24553;51.640;-0.752;2023-03-19T06:47:20;100680.59;;;5.59;100.00
38812;BME280;24553;51.640;-0.752;2023-03-19T06:49:45;100683.75;;;5.63;100.00
38812;BME280;24553;51.640;-0.752;2023-03-19T06:52:10;100696.16;;;5.71;100.00
38812;BME280;24553;51.640;-0.752;2023-03-19T06:54:36;100689.75;;;5.73;100.00
38812;BME280;24553;51.640;-0.752;2023-03-19T06:57:01;100696.28;;;5.69;100.00
38812;BME280;24553;51.640;-0.752;2023-03-19T06:59:27;100694.38;;;5.79;100.00
38812;BME280;24553;51.640;-0.752;2023-03-19T07:01:52;100694.41;;;6.05;100.00
38812;BME280;24553;51.640;-0.752;2023-03-19T07:04:18;100699.94;;;6.28;100.00
38812;BME280;24553;51.640;-0.752;2023-03-19T07:06:43;100709.28;;;6.57;100.00
38812;BME280;24553;51.640;-0.752;2023-03-19T07:09:08;100698.84;;;6.82;100.00
38812;BME280;24553;51.640;-0.752;2023-03-19T07:11:34;100714.34;;;7.09;100.00
38812;BME280;24553;51.640;-0.752;2023-03-19T07:13:59;100708.13;;;7.27;100.00
38812;BME280;24553;51.640;-0.752;2023-03-19T07:16:25;100711.75;;;7.34;100.00
38812;BME280;24553;51.640;-0.752;2023-03-19T07:18:50;100720.50;;;7.42;100.00
38812;BME280;24553;51.640;-0.752;2023-03-19T07:21:15;100717.84;;;7.42;100.00
38812;BME280;24553;51.640;-0.752;2023-03-19T07:23:41;100723.94;;;7.43;100.00
38812;BME280;24553;51.640;-0.752;2023-03-19T07:26:06;100727.25;;;7.53;100.00
38812;BME280;24553;51.640;-0.752;2023-03-19T07:28:32;100724.94;;;7.58;100.00
38812;BME280;24553;51.640;-0.752;2023-03-19T07:30:57;100717.34;;;7.72;100.00
38812;BME280;24553;51.640;-0.752;2023-03-19T07:33:23;100727.25;;;7.78;100.00
38812;BME280;24553;51.640;-0.752;2023-03-19T07:35:48;100736.31;;;7.92;100.00
38812;BME280;24553;51.640;-0.752;2023-03-19T07:38:13;100735.78;;;8.04;100.00
38812;BME280;24553;51.640;-0.752;2023-03-19T07:40:39;100729.34;;;8.07;100.00
38812;BME280;24553;51.640;-0.752;2023-03-19T07:43:05;100732.81;;;8.07;100.00
38812;BME280;24553;51.640;-0.752;2023-03-19T07:45:30;100730.81;;;8.18;100.00
38812;BME280;24553;51.640;-0.752;2023-03-19T07:47:56;100723.81;;;8.33;100.00
38812;BME280;24553;51.640;-0.752;2023-03-19T07:50:21;100740.72;;;8.24;100.00
38812;BME280;24553;51.640;-0.752;2023-03-19T07:52:47;100730.25;;;8.39;100.00
38812;BME280;24553;51.640;-0.752;2023-03-19T07:55:14;100745.44;;;8.53;100.00
38812;BME280;24553;51.640;-0.752;2023-03-19T07:57:39;100740.59;;;8.57;100.00
38812;BME280;24553;51.640;-0.752;2023-03-19T08:00:05;100734.03;;;8.52;100.00
38812;BME280;24553;51.640;-0.752;2023-03-19T08:02:32;100742.28;;;8.58;100.00
38812;BME280;24553;51.640;-0.752;2023-03-19T08:04:57;100744.88;;;8.66;100.00
38812;BME280;24553;51.640;-0.752;2023-03-19T08:07:26;100741.19;;;8.83;100.00
38812;BME280;24553;51.640;-0.752;2023-03-19T08:09:51;100745.59;;;8.91;100.00
38812;BME280;24553;51.640;-0.752;2023-03-19T08:12:17;100746.41;;;8.91;100.00
38812;BME280;24553;51.640;-0.752;2023-03-19T08:14:42;100750.13;;;8.74;100.00
38812;BME280;24553;51.640;-0.752;2023-03-19T08:17:08;100754.81;;;8.95;100.00
38812;BME280;24553;51.640;-0.752;2023-03-19T08:19:33;100747.97;;;9.09;100.00
38812;BME280;24553;51.640;-0.752;2023-03-19T08:21:58;100746.25;;;9.16;100.00
38812;BME280;24553;51.640;-0.752;2023-03-19T08:24:24;100756.25;;;9.29;100.00
38812;BME280;24553;51.640;-0.752;2023-03-19T08:26:49;100757.22;;;9.36;100.00
38812;BME280;24553;51.640;-0.752;2023-03-19T08:29:15;100769.34;;;9.30;100.00
38812;BME280;24553;51.640;-0.752;2023-03-19T08:31:40;100769.19;;;9.24;100.00
38812;BME280;24553;51.640;-0.752;2023-03-19T08:34:07;100764.13;;;9.37;100.00
38812;BME280;24553;51.640;-0.752;2023-03-19T08:36:34;100773.91;;;9.36;100.00
38812;BME280;24553;51.640;-0.752;2023-03-19T08:38:59;100787.09;;;9.45;100.00
38812;BME280;24553;51.640;-0.752;2023-03-19T08:41:25;100786.75;;;9.48;100.00
38812;BME280;24553;51.640;-0.752;2023-03-19T08:43:50;100791.84;;;9.49;100.00
38812;BME280;24553;51.640;-0.752;2023-03-19T08:46:16;100798.38;;;9.61;100.00
38812;BME280;24553;51.640;-0.752;2023-03-19T08:48:42;100795.69;;;9.70;100.00
38812;BME280;24553;51.640;-0.752;2023-03-19T08:51:08;100799.13;;;9.70;100.00
38812;BME280;24553;51.640;-0.752;2023-03-19T08:53:34;100800.00;;;9.71;100.00
38812;BME280;24553;51.640;-0.752;2023-03-19T08:56:02;100795.31;;;9.50;100.00
38812;BME280;24553;51.640;-0.752;2023-03-19T08:58:29;100802.09;;;9.52;100.00
38812;BME280;24553;51.640;-0.752;2023-03-19T09:01:02;100800.50;;;9.66;100.00
38812;BME280;24553;51.640;-0.752;2023-03-19T09:03:28;100805.44;;;9.69;100.00
38812;BME280;24553;51.640;-0.752;2023-03-19T09:05:57;100808.97;;;9.85;100.00
38812;BME280;24553;51.640;-0.752;2023-03-19T09:08:23;100806.31;;;9.85;100.00
38812;BME280;24553;51.640;-0.752;2023-03-19T09:10:48;100806.84;;;9.80;100.00
38812;BME280;24553;51.640;-0.752;2023-03-19T09:13:13;100816.25;;;9.82;100.00
38812;BME280;24553;51.640;-0.752;2023-03-19T09:15:38;100812.28;;;9.87;100.00
38812;BME280;24553;51.640;-0.752;2023-03-19T09:18:04;100823.25;;;9.75;100.00
38812;BME280;24553;51.640;-0.752;2023-03-19T09:20:29;100823.84;;;9.86;100.00
38812;BME280;24553;51.640;-0.752;2023-03-19T09:22:55;100833.38;;;9.95;100.00
38812;BME280;24553;51.640;-0.752;2023-03-19T09:25:20;100829.28;;;9.92;100.00
38812;BME280;24553;51.640;-0.752;2023-03-19T09:27:45;100822.28;;;9.76;100.00
38812;BME280;24553;51.640;-0.752;2023-03-19T09:30:11;100833.22;;;9.73;100.00
38812;BME280;24553;51.640;-0.752;2023-03-19T09:32:37;100843.16;;;9.71;100.00
38812;BME280;24553;51.640;-0.752;2023-03-19T09:35:02;100845.31;;;9.68;100.00
38812;BME280;24553;51.640;-0.752;2023-03-19T09:37:28;100842.97;;;9.73;100.00
38812;BME280;24553;51.640;-0.752;2023-03-19T09:39:53;100860.16;;;9.77;100.00
38812;BME280;24553;51.640;-0.752;2023-03-19T09:45:03;100857.53;;;10.00;100.00
38812;BME280;24553;51.640;-0.752;2023-03-19T09:47:36;100857.00;;;10.19;100.00
38812;BME280;24553;51.640;-0.752;2023-03-19T09:50:24;100855.22;;;10.20;100.00
38812;BME280;24553;51.640;-0.752;2023-03-19T09:53:00;100859.75;;;10.11;100.00
38812;BME280;24553;51.640;-0.752;2023-03-19T09:55:48;100861.13;;;10.07;100.00
38812;BME280;24553;51.640;-0.752;2023-03-19T09:58:18;100872.09;;;10.19;100.00
38812;BME280;24553;51.640;-0.752;2023-03-19T10:00:47;100870.16;;;10.13;100.00
38812;BME280;24553;51.640;-0.752;2023-03-19T10:03:32;100872.63;;;10.14;100.00
38812;BME280;24553;51.640;-0.752;2023-03-19T10:06:27;100883.13;;;10.08;100.00
38812;BME280;24553;51.640;-0.752;2023-03-19T10:17:31;100886.97;;;10.28;100.00
38812;BME280;24553;51.640;-0.752;2023-03-19T10:20:07;100883.50;;;10.28;100.00
38812;BME280;24553;51.640;-0.752;2023-03-19T10:22:38;100886.88;;;10.13;100.00
38812;BME280;24553;51.640;-0.752;2023-03-19T10:25:09;100882.88;;;10.17;100.00
38812;BME280;24553;51.640;-0.752;2023-03-19T10:27:36;100895.41;;;10.23;100.00
38812;BME280;24553;51.640;-0.752;2023-03-19T10:30:11;100895.25;;;10.25;100.00
38812;BME280;24553;51.640;-0.752;2023-03-19T10:32:41;100894.31;;;10.18;100.00
38812;BME280;24553;51.640;-0.752;2023-03-19T10:37:54;100889.41;;;10.30;100.00
38812;BME280;24553;51.640;-0.752;2023-03-19T10:40:43;100903.59;;;10.37;100.00
38812;BME280;24553;51.640;-0.752;2023-03-19T10:43:17;100902.66;;;10.30;100.00
38812;BME280;24553;51.640;-0.752;2023-03-19T10:45:45;100895.84;;;10.35;100.00
38812;BME280;24553;51.640;-0.752;2023-03-19T10:48:16;100905.38;;;10.44;100.00
38812;BME280;24553;51.640;-0.752;2023-03-19T10:55:56;100905.16;;;10.31;100.00
38812;BME280;24553;51.640;-0.752;2023-03-19T10:58:26;100900.66;;;10.32;100.00
38812;BME280;24553;51.640;-0.752;2023-03-19T11:01:04;100897.25;;;10.61;100.00
38812;BME280;24553;51.640;-0.752;2023-03-19T11:03:33;100890.91;;;11.00;100.00
38812;BME280;24553;51.640;-0.752;2023-03-19T11:08:39;100889.63;;;11.47;100.00
38812;BME280;24553;51.640;-0.752;2023-03-19T11:11:04;100894.81;;;11.55;100.00
38812;BME280;24553;51.640;-0.752;2023-03-19T11:13:33;100890.56;;;11.39;100.00
38812;BME280;24553;51.640;-0.752;2023-03-19T11:16:00;100891.53;;;11.53;100.00
38812;BME280;24553;51.640;-0.752;2023-03-19T11:18:35;100884.97;;;11.49;100.00
38812;BME280;24553;51.640;-0.752;2023-03-19T11:21:24;100885.97;;;12.06;100.00
38812;BME280;24553;51.640;-0.752;2023-03-19T11:23:57;100881.91;;;12.10;100.00
38812;BME280;24553;51.640;-0.752;2023-03-19T11:26:23;100885.06;;;12.20;100.00
38812;BME280;24553;51.640;-0.752;2023-03-19T11:28:52;100890.81;;;12.80;100.00
38812;BME280;24553;51.640;-0.752;2023-03-19T11:31:27;100881.28;;;13.34;100.00
38812;BME280;24553;51.640;-0.752;2023-03-19T11:34:21;100884.28;;;13.24;100.00
38812;BME280;24553;51.640;-0.752;2023-03-19T11:39:51;100893.47;;;12.80;100.00
38812;BME280;24553;51.640;-0.752;2023-03-19T11:45:11;100906.72;;;12.17;100.00
38812;BME280;24553;51.640;-0.752;2023-03-19T11:51:09;100914.16;;;12.28;100.00
38812;BME280;24553;51.640;-0.752;2023-03-19T12:04:43;100915.72;;;12.72;100.00
38812;BME280;24553;51.640;-0.752;2023-03-19T12:14:51;100922.66;;;12.17;100.00
38812;BME280;24553;51.640;-0.752;2023-03-19T12:17:43;100919.41;;;12.43;100.00
38812;BME280;24553;51.640;-0.752;2023-03-19T12:20:21;100925.22;;;12.53;100.00
38812;BME280;24553;51.640;-0.752;2023-03-19T12:22:59;100924.78;;;12.50;100.00
38812;BME280;24553;51.640;-0.752;2023-03-19T12:25:44;100915.00;;;12.57;100.00
38812;BME280;24553;51.640;-0.752;2023-03-19T12:28:21;100917.91;;;12.62;100.00
38812;BME280;24553;51.640;-0.752;2023-03-19T12:36:27;100908.47;;;12.87;100.00
38812;BME280;24553;51.640;-0.752;2023-03-19T12:38:59;100912.41;;;12.98;100.00
38812;BME280;24553;51.640;-0.752;2023-03-19T12:41:27;100907.50;;;12.95;100.00
38812;BME280;24553;51.640;-0.752;2023-03-19T12:44:08;100905.88;;;13.01;100.00
38812;BME280;24553;51.640;-0.752;2023-03-19T12:46:41;100900.41;;;13.09;100.00
38812;BME280;24553;51.640;-0.752;2023-03-19T12:49:15;100895.22;;;13.36;100.00
38812;BME280;24553;51.640;-0.752;2023-03-19T12:51:46;100910.34;;;13.28;100.00
38812;BME280;24553;51.640;-0.752;2023-03-19T12:54:18;100901.53;;;13.28;100.00
38812;BME280;24553;51.640;-0.752;2023-03-19T12:59:30;100902.91;;;13.17;100.00
38812;BME280;24553;51.640;-0.752;2023-03-19T13:04:38;100904.06;;;13.08;100.00
38812;BME280;24553;51.640;-0.752;2023-03-19T13:07:17;100908.13;;;13.32;100.00
38812;BME280;24553;51.640;-0.752;2023-03-19T13:10:08;100909.53;;;13.28;100.00
38812;BME280;24553;51.640;-0.752;2023-03-19T13:12:36;100904.66;;;13.45;100.00
38812;BME280;24553;51.640;-0.752;2023-03-19T13:15:23;100905.47;;;13.39;100.00
38812;BME280;24553;51.640;-0.752;2023-03-19T13:18:00;100910.81;;;13.39;100.00
38812;BME280;24553;51.640;-0.752;2023-03-19T13:23:12;100900.66;;;13.21;100.00
38812;BME280;24553;51.640;-0.752;2023-03-19T13:25:43;100895.56;;;13.19;100.00
38812;BME280;24553;51.640;-0.752;2023-03-19T13:31:38;100909.56;;;13.35;100.00
38812;BME280;24553;51.640;-0.752;2023-03-19T13:36:44;100901.97;;;13.31;100.00
38812;BME280;24553;51.640;-0.752;2023-03-19T13:39:17;100898.38;;;13.59;100.00
38812;BME280;24553;51.640;-0.752;2023-03-19T13:46:46;100904.38;;;13.74;100.00
38812;BME280;24553;51.640;-0.752;2023-03-19T13:51:44;100909.63;;;13.55;100.00
38812;BME280;24553;51.640;-0.752;2023-03-19T13:59:35;100899.84;;;13.68;100.00
38812;BME280;24553;51.640;-0.752;2023-03-19T14:04:57;100913.88;;;13.36;100.00
38812;BME280;24553;51.640;-0.752;2023-03-19T14:07:26;100904.06;;;13.49;100.00
38812;BME280;24553;51.640;-0.752;2023-03-19T14:12:42;100913.81;;;13.84;100.00